Time;durP1;ratioP1;P1;durP2;ratioP2;P2;SDS_P1;SDS_P2;PMS_P1;PMS_P2;Temp;Humidity;BMP_temperature;BMP_pressure;BME280_temperature;BME280_humidity;BME280_pressure;Samples;Min_cycle;Max_cycle;Signal;HPM_P1;HPM_P2
2022/06/22 00:01:33;;;;;;;9.45;4.72;;;;;;;14.04;68.76;99302.28;5029579;28;20077;-73
2022/06/22 00:04:02;;;;;;;8.27;4.70;;;;;;;14.00;69.48;99303.44;5040781;28;20049;-71
2022/06/22 00:06:36;;;;;;;7.35;4.20;;;;;;;13.96;69.48;99302.81;5035065;28;20041;-72
2022/06/22 00:09:06;;;;;;;7.05;3.97;;;;;;;13.94;69.45;99299.44;5032171;28;20049;-74
2022/06/22 00:11:35;;;;;;;7.15;4.00;;;;;;;13.95;69.52;99281.72;5042666;28;20389;-72
2022/06/22 00:14:03;;;;;;;6.00;3.47;;;;;;;14.00;69.40;99270.78;5030975;28;20059;-71
2022/06/22 00:16:33;;;;;;;7.55;4.78;;;;;;;13.96;69.37;99268.38;5035039;28;20049;-71
2022/06/22 00:19:00;;;;;;;7.07;3.80;;;;;;;13.95;69.01;99272.00;5031349;28;20063;-72
2022/06/22 00:21:32;;;;;;;5.13;3.17;;;;;;;13.95;69.41;99271.13;5042280;28;20059;-71
2022/06/22 00:24:02;;;;;;;11.45;4.80;;;;;;;13.89;69.66;99251.22;5028316;28;20128;-71
2022/06/22 00:26:36;;;;;;;9.95;4.90;;;;;;;13.80;70.29;99237.78;5039989;28;20060;-71
2022/06/22 00:29:24;;;;;;;9.48;4.18;;;;;;;13.76;70.42;99242.47;5015138;28;20072;-73
2022/06/22 00:32:03;;;;;;;11.20;4.82;;;;;;;13.75;70.12;99238.09;4999863;28;20618;-71
2022/06/22 00:34:32;;;;;;;8.25;4.85;;;;;;;13.74;70.21;99252.31;5003654;28;20050;-71
2022/06/22 00:37:02;;;;;;;10.80;5.47;;;;;;;13.75;70.48;99246.88;5027272;28;20049;-72
2022/06/22 00:39:38;;;;;;;5.15;3.97;;;;;;;13.75;70.38;99256.63;5034257;28;20469;-72
2022/06/22 00:42:21;;;;;;;8.05;4.95;;;;;;;13.70;70.64;99251.66;5034190;28;20056;-72
2022/06/22 00:44:52;;;;;;;10.35;4.60;;;;;;;13.63;70.70;99239.81;5003533;28;20053;-71
2022/06/22 00:47:26;;;;;;;8.98;4.43;;;;;;;13.61;70.58;99243.50;5018654;28;20064;-72
2022/06/22 00:49:56;;;;;;;11.10;4.18;;;;;;;13.56;71.28;99240.34;5009969;28;20048;-71
2022/06/22 00:52:32;;;;;;;6.38;4.65;;;;;;;13.56;71.22;99235.06;5033628;28;20059;-74
2022/06/22 00:54:58;;;;;;;8.98;4.55;;;;;;;13.47;71.56;99229.47;5031978;28;21011;-72
2022/06/22 00:57:34;;;;;;;7.60;4.30;;;;;;;13.43;71.34;99227.13;5041136;28;20052;-71
2022/06/22 01:00:13;;;;;;;9.40;4.28;;;;;;;13.47;71.31;99225.97;5019219;28;20064;-73
2022/06/22 01:02:45;;;;;;;8.10;4.35;;;;;;;13.55;70.50;99220.97;5032125;28;20049;-71
2022/06/22 01:05:19;;;;;;;6.88;4.80;;;;;;;13.55;70.83;99226.25;5039183;28;20147;-71
2022/06/22 01:07:54;;;;;;;8.43;5.10;;;;;;;13.55;70.96;99225.44;5008193;28;20174;-71
2022/06/22 01:10:27;;;;;;;5.90;4.15;;;;;;;13.55;71.06;99226.25;5034701;28;20663;-70
2022/06/22 01:13:03;;;;;;;6.95;4.78;;;;;;;13.53;71.15;99230.81;5031901;28;20050;-71
2022/06/22 01:15:35;;;;;;;8.02;5.32;;;;;;;13.45;71.33;99231.38;5039923;28;20053;-70
2022/06/22 01:18:07;;;;;;;9.68;4.55;;;;;;;13.45;71.29;99230.53;5024392;28;20111;-71
2022/06/22 01:20:46;;;;;;;8.70;4.53;;;;;;;13.41;71.57;99229.03;5035160;28;20048;-71
2022/06/22 01:23:39;;;;;;;9.43;4.68;;;;;;;13.31;71.90;99228.81;5029053;28;20060;-71
2022/06/22 01:26:21;;;;;;;10.45;4.20;;;;;;;13.22;72.09;99225.00;5030396;28;20515;-73
2022/06/22 01:28:53;;;;;;;6.35;3.72;;;;;;;13.16;72.55;99224.56;5032494;28;20128;-71
2022/06/22 01:31:20;;;;;;;11.27;4.00;;;;;;;13.14;72.22;99231.75;5021644;28;20055;-71
2022/06/22 01:33:50;;;;;;;10.55;4.60;;;;;;;13.14;72.34;99223.81;5019183;28;20048;-70
2022/06/22 01:36:23;;;;;;;7.07;4.47;;;;;;;13.14;72.57;99222.00;5029041;28;20816;-71
2022/06/22 01:38:50;;;;;;;8.65;4.18;;;;;;;13.16;72.75;99230.69;5036685;28;20045;-71
2022/06/22 01:41:28;;;;;;;9.00;4.72;;;;;;;13.11;72.78;99233.66;5029366;28;20053;-71
2022/06/22 01:44:01;;;;;;;7.32;4.63;;;;;;;13.03;73.57;99235.16;5013073;28;20072;-71
2022/06/22 01:46:40;;;;;;;8.18;4.50;;;;;;;13.00;73.16;99232.72;5023174;28;20053;-72
2022/06/22 01:49:12;;;;;;;6.63;4.53;;;;;;;12.93;73.17;99229.63;5009194;28;20053;-70
2022/06/22 01:51:45;;;;;;;6.70;4.68;;;;;;;12.93;73.09;99213.75;4999873;28;20124;-70
2022/06/22 01:54:19;;;;;;;4.38;3.10;;;;;;;12.99;72.96;99215.97;5014128;28;20528;-70
2022/06/22 01:56:50;;;;;;;6.05;4.28;;;;;;;13.03;72.78;99211.34;5028924;28;20041;-70
2022/06/22 01:59:27;;;;;;;9.48;4.25;;;;;;;13.04;72.43;99205.94;5019048;28;20141;-72
2022/06/22 02:02:00;;;;;;;15.73;5.30;;;;;;;13.01;72.06;99195.56;5008713;28;20060;-70
2022/06/22 02:04:34;;;;;;;7.53;3.78;;;;;;;12.98;72.67;99200.22;5028461;28;20055;-71
2022/06/22 02:10:25;;;;;;;6.80;4.22;;;;;;;12.90;72.17;99206.03;5016392;28;20052;-71
2022/06/22 02:13:00;;;;;;;6.97;4.20;;;;;;;12.90;72.65;99192.81;5019244;28;20500;-71
2022/06/22 02:15:42;;;;;;;6.23;4.57;;;;;;;12.88;73.27;99190.25;5021162;28;20137;-74
2022/06/22 02:18:11;;;;;;;6.75;4.35;;;;;;;12.88;72.99;99186.78;5023699;28;20296;-72
2022/06/22 02:20:39;;;;;;;5.85;4.78;;;;;;;12.91;72.47;99188.38;5031154;28;20110;-71
2022/06/22 02:23:11;;;;;;;5.55;4.35;;;;;;;12.92;72.44;99188.28;5029552;28;20071;-72
2022/06/22 02:25:45;;;;;;;10.13;4.60;;;;;;;12.87;72.55;99193.88;5032530;28;20050;-72
2022/06/22 02:28:12;;;;;;;15.07;5.50;;;;;;;12.75;72.92;99188.53;5030520;28;20049;-72
2022/06/22 02:30:42;;;;;;;9.98;3.97;;;;;;;12.68;73.73;99204.84;5029655;28;20803;-72
2022/06/22 02:33:10;;;;;;;11.50;3.78;;;;;;;12.68;73.66;99209.28;5019021;28;20501;-72
2022/06/22 02:35:40;;;;;;;10.48;5.05;;;;;;;12.63;73.87;99201.66;5024533;28;20417;-71
2022/06/22 02:38:10;;;;;;;5.78;3.83;;;;;;;12.64;73.79;99191.94;5034044;28;20511;-71
2022/06/22 02:46:13;;;;;;;10.75;4.32;;;;;;;12.58;73.30;99197.63;5022559;28;20060;-72
2022/06/22 02:48:42;;;;;;;5.38;3.75;;;;;;;12.55;74.00;99203.97;5032614;28;20049;-73
2022/06/22 02:51:16;;;;;;;7.40;3.30;;;;;;;12.51;74.08;99199.84;5029909;28;20301;-72
2022/06/22 02:53:44;;;;;;;7.30;5.03;;;;;;;12.45;73.98;99201.09;5041944;28;20132;-72
2022/06/22 02:56:15;;;;;;;9.48;4.32;;;;;;;12.44;74.73;99207.31;5027575;28;20049;-71
2022/06/22 02:58:41;;;;;;;7.68;4.00;;;;;;;12.39;74.72;99212.06;5036914;28;20055;-71
2022/06/22 03:01:12;;;;;;;9.40;4.13;;;;;;;12.33;74.46;99203.69;5030226;28;20053;-72
2022/06/22 03:03:42;;;;;;;8.00;3.55;;;;;;;12.36;74.76;99207.00;5031852;28;20068;-72
2022/06/22 03:06:12;;;;;;;8.80;4.18;;;;;;;12.29;74.87;99197.75;5029726;28;20111;-71
2022/06/22 03:08:39;;;;;;;6.45;3.53;;;;;;;12.27;74.95;99201.47;5035800;28;20680;-72
2022/06/22 03:11:08;;;;;;;10.38;3.95;;;;;;;12.24;74.92;99206.00;5041844;28;20045;-72
2022/06/22 03:13:40;;;;;;;6.03;3.85;;;;;;;12.27;75.16;99207.59;5031062;28;20107;-72
2022/06/22 03:16:10;;;;;;;9.48;4.38;;;;;;;12.16;75.61;99204.81;5040373;28;20136;-71
2022/06/22 03:18:43;;;;;;;12.80;4.30;;;;;;;12.07;75.82;99198.31;5027172;28;20148;-72
2022/06/22 03:21:13;;;;;;;5.05;3.83;;;;;;;12.04;75.70;99198.53;5041032;28;20052;-71
2022/06/22 03:23:46;;;;;;;6.30;3.92;;;;;;;12.08;75.48;99200.00;5043615;28;20044;-72
2022/06/22 03:26:19;;;;;;;5.57;3.35;;;;;;;12.10;74.91;99200.75;5031004;28;20570;-72
2022/06/22 03:28:51;;;;;;;7.32;3.80;;;;;;;12.13;75.13;99210.28;5033036;28;20046;-71
2022/06/22 03:31:22;;;;;;;8.25;4.10;;;;;;;12.11;74.50;99213.03;5043164;28;20052;-70
2022/06/22 03:33:54;;;;;;;6.88;3.33;;;;;;;12.09;75.44;99204.34;5011148;28;20548;-72
2022/06/22 03:36:26;;;;;;;9.35;3.65;;;;;;;12.10;75.43;99206.03;5029920;28;20136;-71
2022/06/22 03:38:59;;;;;;;10.55;3.33;;;;;;;12.11;75.75;99206.88;5034023;28;20049;-71
2022/06/22 03:41:29;;;;;;;7.32;3.67;;;;;;;12.11;75.55;99204.22;5043095;28;20059;-70
2022/06/22 03:44:00;;;;;;;6.78;3.90;;;;;;;12.07;75.41;99214.16;5026717;28;20045;-70
2022/06/22 03:46:31;;;;;;;6.90;3.78;;;;;;;12.09;75.24;99211.44;5034733;28;20053;-70
2022/06/22 03:49:07;;;;;;;6.80;3.58;;;;;;;12.07;75.61;99218.63;5033860;28;20041;-71
2022/06/22 03:51:42;;;;;;;7.93;4.47;;;;;;;12.10;75.50;99210.47;5043918;28;20082;-71
2022/06/22 03:54:14;;;;;;;6.82;3.53;;;;;;;12.13;75.23;99192.63;5027473;28;20144;-71
2022/06/22 03:56:47;;;;;;;10.88;5.97;;;;;;;12.19;74.99;99196.69;5038012;28;20128;-70
2022/06/22 03:59:14;;;;;;;5.68;3.40;;;;;;;12.23;74.46;99185.81;5031011;28;20124;-71
2022/06/22 04:01:42;;;;;;;9.95;3.65;;;;;;;12.33;74.21;99190.47;5024054;28;20053;-71
2022/06/22 04:04:10;;;;;;;8.63;4.00;;;;;;;12.36;74.16;99182.34;5025931;28;20058;-70
2022/06/22 04:06:41;;;;;;;10.63;4.55;;;;;;;12.34;74.93;99187.72;5022011;28;20059;-70
2022/06/22 04:09:14;;;;;;;7.30;4.55;;;;;;;12.39;74.34;99190.91;5012082;28;20053;-70
2022/06/22 04:11:45;;;;;;;7.47;4.28;;;;;;;12.44;74.49;99182.69;5022596;28;22968;-70
2022/06/22 04:14:18;;;;;;;8.05;4.97;;;;;;;12.46;74.06;99179.00;5013630;28;20045;-73
2022/06/22 04:16:50;;;;;;;8.95;4.45;;;;;;;12.47;74.33;99171.91;5014054;28;20143;-71
2022/06/22 04:19:23;;;;;;;5.72;3.05;;;;;;;12.50;74.32;99169.03;5021843;28;20049;-73
2022/06/22 04:21:53;;;;;;;7.20;3.97;;;;;;;12.52;74.65;99172.44;5013380;28;20056;-72
2022/06/22 04:24:24;;;;;;;7.65;3.25;;;;;;;12.53;74.14;99179.44;5035055;28;20041;-71
2022/06/22 04:26:56;;;;;;;8.55;3.80;;;;;;;12.53;74.01;99178.56;5033746;28;20160;-73
2022/06/22 04:29:34;;;;;;;10.27;4.50;;;;;;;12.56;73.94;99176.56;5028704;28;20837;-73
2022/06/22 04:32:04;;;;;;;6.07;3.88;;;;;;;12.61;74.06;99181.56;5011623;28;20041;-71
2022/06/22 04:34:41;;;;;;;5.97;4.05;;;;;;;12.66;74.17;99175.00;5016494;28;20057;-72
2022/06/22 04:37:21;;;;;;;10.15;4.90;;;;;;;12.70;73.57;99177.44;5022414;28;20127;-71
2022/06/22 04:39:51;;;;;;;9.48;4.25;;;;;;;12.74;73.99;99182.41;5006177;28;20583;-72
2022/06/22 04:42:18;;;;;;;7.38;4.32;;;;;;;12.81;73.64;99174.91;5030087;28;20048;-71
2022/06/22 04:44:51;;;;;;;7.78;4.22;;;;;;;12.91;73.33;99180.44;5030648;28;20049;-72
2022/06/22 04:47:22;;;;;;;6.18;3.20;;;;;;;12.98;74.24;99184.34;5038206;28;20055;-72
2022/06/22 04:49:53;;;;;;;6.85;4.18;;;;;;;13.05;73.64;99186.47;5009967;28;20109;-72
2022/06/22 04:52:25;;;;;;;7.10;4.07;;;;;;;13.11;73.49;99193.13;5026721;28;20041;-72
2022/06/22 04:54:55;;;;;;;11.23;4.93;;;;;;;13.21;73.46;99185.38;5019324;28;20068;-72
2022/06/22 04:57:25;;;;;;;7.55;4.10;;;;;;;13.28;73.10;99186.69;5026444;28;20055;-73
2022/06/22 04:59:53;;;;;;;11.80;4.72;;;;;;;13.36;73.02;99192.28;5036197;28;20055;-72
2022/06/22 05:02:23;;;;;;;6.80;3.95;;;;;;;13.48;72.36;99191.41;5033936;28;20048;-71
2022/06/22 05:04:54;;;;;;;6.25;4.72;;;;;;;13.62;71.53;99192.25;5037006;28;20106;-70
2022/06/22 05:07:38;;;;;;;5.90;4.00;;;;;;;13.75;71.60;99196.53;5027949;28;20143;-71
2022/06/22 05:10:15;;;;;;;12.13;5.50;;;;;;;13.90;70.16;99197.25;5019776;28;20046;-72
2022/06/22 05:12:47;;;;;;;10.70;5.63;;;;;;;14.03;69.33;99194.56;5030952;28;20049;-72
2022/06/22 05:15:22;;;;;;;7.10;4.18;;;;;;;14.19;69.36;99186.31;4980101;28;20141;-72
2022/06/22 05:17:50;;;;;;;7.25;3.50;;;;;;;14.32;68.44;99192.44;5009707;28;20052;-73
2022/06/22 05:20:24;;;;;;;9.60;5.32;;;;;;;14.48;68.77;99183.31;5020166;28;20057;-72
2022/06/22 05:22:53;;;;;;;9.30;4.72;;;;;;;14.59;67.83;99186.03;5017996;28;20049;-71
2022/06/22 05:25:21;;;;;;;14.55;5.75;;;;;;;14.72;67.18;99192.13;5024967;28;20051;-72
2022/06/22 05:27:59;;;;;;;10.95;5.05;;;;;;;14.81;67.57;99194.06;5008403;28;21046;-71
2022/06/22 05:30:27;;;;;;;15.52;6.72;;;;;;;14.89;67.31;99190.84;5020276;28;20041;-72
2022/06/22 05:32:58;;;;;;;13.48;6.07;;;;;;;14.94;67.90;99193.97;5021035;28;20127;-71
2022/06/22 05:35:31;;;;;;;9.00;4.78;;;;;;;15.01;67.69;99200.50;5015296;28;20042;-71
2022/06/22 05:38:02;;;;;;;18.10;6.45;;;;;;;15.16;66.77;99208.22;5015806;28;20132;-71
2022/06/22 05:40:32;;;;;;;15.88;5.80;;;;;;;15.35;66.31;99208.50;5030243;28;20052;-73
2022/06/22 05:42:59;;;;;;;13.70;6.13;;;;;;;15.41;65.84;99223.13;5023301;28;20046;-72
2022/06/22 05:45:38;;;;;;;7.97;5.63;;;;;;;15.44;66.17;99221.06;5031014;28;20127;-74
2022/06/22 05:48:07;;;;;;;10.48;6.28;;;;;;;15.50;66.00;99219.72;5012303;28;20049;-72
2022/06/22 05:50:42;;;;;;;12.27;6.22;;;;;;;15.56;66.04;99211.28;4982151;28;20074;-71
2022/06/22 05:53:15;;;;;;;13.02;5.97;;;;;;;15.65;65.59;99218.53;5001130;28;20057;-71
2022/06/22 05:55:49;;;;;;;14.43;5.47;;;;;;;15.85;64.62;99219.63;5008342;28;20053;-72
2022/06/22 05:58:24;;;;;;;9.20;5.35;;;;;;;15.94;63.87;99226.00;5016643;28;20426;-73
2022/06/22 06:00:52;;;;;;;12.02;5.07;;;;;;;15.99;63.93;99223.81;5016740;28;20052;-71
2022/06/22 06:03:31;;;;;;;11.50;5.03;;;;;;;16.06;64.17;99218.84;4989854;28;20069;-75
2022/06/22 06:06:06;;;;;;;12.90;6.15;;;;;;;16.18;63.38;99217.84;5009037;28;20072;-68
2022/06/22 06:08:41;;;;;;;11.10;5.63;;;;;;;16.37;62.08;99214.53;4996702;28;20053;-51
2022/06/22 06:11:13;;;;;;;11.07;5.88;;;;;;;16.56;61.17;99216.50;5001563;28;20291;-55
2022/06/22 06:13:45;;;;;;;14.13;6.65;;;;;;;16.98;59.16;99216.56;5023809;28;20053;-49
2022/06/22 06:16:18;;;;;;;15.60;6.60;;;;;;;17.06;58.35;99203.47;5014983;28;20132;-54
2022/06/22 06:18:46;;;;;;;14.38;5.95;;;;;;;17.09;58.66;99199.69;5016740;28;20160;-50
2022/06/22 06:21:18;;;;;;;14.30;6.45;;;;;;;17.22;58.87;99204.78;4999085;28;20402;-48
2022/06/22 06:23:50;;;;;;;14.10;6.90;;;;;;;17.44;57.23;99209.13;5007802;28;20500;-52
2022/06/22 06:29:19;;;;;;;11.75;6.05;;;;;;;17.84;57.80;99213.63;5023802;28;20064;-53
2022/06/22 06:32:04;;;;;;;10.65;6.28;;;;;;;18.08;56.26;99210.63;5019962;28;20389;-53
2022/06/22 06:34:36;;;;;;;15.15;6.60;;;;;;;18.10;56.01;99206.81;4997714;28;20053;-49
2022/06/22 06:37:12;;;;;;;14.55;6.55;;;;;;;18.39;55.39;99198.03;5029530;28;20049;-48
2022/06/22 06:39:45;;;;;;;12.55;6.13;;;;;;;18.53;55.51;99196.75;4992414;28;20132;-50
2022/06/22 06:42:29;;;;;;;17.67;6.20;;;;;;;18.78;54.48;99190.00;5005954;28;20056;-44
2022/06/22 06:44:59;;;;;;;12.55;6.03;;;;;;;18.96;53.39;99192.81;5020855;28;20535;-48
2022/06/22 06:47:32;;;;;;;15.07;5.78;;;;;;;18.96;53.19;99193.66;5023394;28;20612;-69
2022/06/22 06:50:06;;;;;;;9.93;6.03;;;;;;;18.82;53.21;99194.09;5009002;28;20049;-71
2022/06/22 06:52:44;;;;;;;10.75;5.03;;;;;;;18.87;53.69;99202.50;5023173;28;20053;-73
2022/06/22 06:55:26;;;;;;;11.88;5.35;;;;;;;18.64;53.75;99197.44;5018386;28;20065;-71
2022/06/22 06:58:02;;;;;;;11.77;6.88;;;;;;;18.67;54.07;99204.31;5007667;28;20081;-72
2022/06/22 07:00:30;;;;;;;14.15;5.97;;;;;;;18.82;53.41;99207.44;5023689;28;20053;-71
2022/06/22 07:02:58;;;;;;;10.98;5.40;;;;;;;18.77;53.60;99205.19;5010254;28;20142;-72
2022/06/22 07:05:27;;;;;;;9.77;5.93;;;;;;;18.86;53.09;99215.03;4975056;28;20068;-70
2022/06/22 07:08:01;;;;;;;10.73;5.18;;;;;;;18.90;52.96;99210.22;5017750;28;20053;-71
2022/06/22 07:10:39;;;;;;;8.50;5.70;;;;;;;18.97;52.79;99215.84;5013121;28;20787;-71
2022/06/22 07:13:12;;;;;;;12.98;5.03;;;;;;;19.01;52.17;99218.09;5005589;28;20055;-71
2022/06/22 07:15:44;;;;;;;7.95;4.93;;;;;;;19.14;51.78;99220.47;5020959;28;20060;-72
2022/06/22 07:18:20;;;;;;;11.23;6.38;;;;;;;19.26;52.12;99221.13;4981771;28;20049;-71
2022/06/22 07:20:55;;;;;;;14.85;6.15;;;;;;;19.36;50.73;99224.63;4998080;28;20054;-72
2022/06/22 07:23:29;;;;;;;12.65;5.97;;;;;;;19.48;50.36;99225.28;5019835;28;20136;-72
2022/06/22 07:26:01;;;;;;;11.38;4.78;;;;;;;19.63;50.04;99222.97;5005626;28;20049;-69
2022/06/22 07:28:35;;;;;;;9.57;3.92;;;;;;;19.85;49.97;99230.66;5013146;28;20060;-71
2022/06/22 07:31:05;;;;;;;8.40;4.63;;;;;;;20.14;49.76;99225.13;5017342;28;20057;-72
2022/06/22 07:33:36;;;;;;;9.52;4.47;;;;;;;20.31;48.70;99218.13;5006177;28;20125;-72
2022/06/22 07:36:08;;;;;;;9.85;4.78;;;;;;;20.32;48.44;99209.09;4975799;28;20060;-71
2022/06/22 07:38:48;;;;;;;16.15;5.80;;;;;;;20.65;48.12;99209.44;5022504;28;20060;-71
2022/06/22 07:41:20;;;;;;;10.10;5.20;;;;;;;20.82;47.36;99205.03;5018433;28;20045;-72
2022/06/22 07:43:49;;;;;;;9.05;5.22;;;;;;;21.06;47.18;99203.53;5013485;28;20041;-69
2022/06/22 07:46:24;;;;;;;6.05;4.47;;;;;;;20.97;46.26;99200.81;5025436;28;20056;-71
2022/06/22 07:48:54;;;;;;;10.25;5.03;;;;;;;20.97;46.46;99208.03;5014754;28;20049;-72
2022/06/22 07:51:26;;;;;;;10.43;4.68;;;;;;;20.98;45.27;99204.34;5023449;28;20049;-73
2022/06/22 07:53:59;;;;;;;8.65;4.53;;;;;;;21.16;46.03;99206.97;5021808;28;20055;-73
2022/06/22 07:56:32;;;;;;;10.98;4.35;;;;;;;21.34;45.43;99214.94;5003850;28;20053;-71
2022/06/22 07:59:06;;;;;;;5.95;3.47;;;;;;;21.42;45.97;99215.03;5025515;28;20115;-72
2022/06/22 08:01:38;;;;;;;9.70;4.40;;;;;;;21.35;44.97;99220.16;5026000;28;20504;-71
2022/06/22 08:04:10;;;;;;;8.45;4.45;;;;;;;21.19;44.87;99214.69;5017671;28;20474;-72
2022/06/22 08:06:41;;;;;;;9.43;4.32;;;;;;;21.21;45.24;99212.69;5024337;28;20053;-68
2022/06/22 08:09:16;;;;;;;12.65;4.85;;;;;;;21.03;45.70;99204.69;5023346;28;20059;-69
2022/06/22 08:11:49;;;;;;;7.27;3.97;;;;;;;20.98;46.01;99204.34;5025290;28;20046;-70
2022/06/22 08:14:20;;;;;;;8.85;3.88;;;;;;;21.06;46.45;99201.69;5026583;28;20314;-70
2022/06/22 08:16:51;;;;;;;9.68;4.30;;;;;;;21.18;45.70;99204.97;5025472;28;20053;-71
2022/06/22 08:19:19;;;;;;;7.15;3.90;;;;;;;21.20;45.94;99197.63;5019163;28;20137;-70
2022/06/22 08:21:48;;;;;;;8.38;4.03;;;;;;;21.47;46.11;99202.00;5027530;28;20077;-73
2022/06/22 08:24:19;;;;;;;8.45;4.55;;;;;;;21.74;45.73;99200.09;5026300;28;20064;-71
2022/06/22 08:26:47;;;;;;;7.38;3.75;;;;;;;21.94;45.57;99206.88;5013924;28;20045;-72
2022/06/22 08:29:18;;;;;;;7.78;4.43;;;;;;;22.07;44.69;99209.09;5017242;28;20045;-73
2022/06/22 08:31:49;;;;;;;6.22;4.07;;;;;;;21.94;44.57;99204.19;5016381;28;20054;-71
2022/06/22 08:34:21;;;;;;;8.20;3.40;;;;;;;21.95;44.44;99203.19;5010715;28;20519;-71
2022/06/22 08:36:54;;;;;;;7.50;4.50;;;;;;;21.89;44.53;99211.06;5013070;28;20052;-71
2022/06/22 08:39:26;;;;;;;13.55;4.32;;;;;;;21.84;44.25;99206.19;5017216;28;20046;-70
2022/06/22 08:42:01;;;;;;;7.72;3.75;;;;;;;21.92;44.89;99208.03;5017933;28;20094;-71
2022/06/22 08:44:40;;;;;;;7.32;3.72;;;;;;;22.10;45.10;99203.38;5025100;28;20386;-70
2022/06/22 08:47:33;;;;;;;14.23;4.78;;;;;;;22.05;44.50;99203.91;5021162;28;20057;-71
2022/06/22 08:50:13;;;;;;;10.70;4.57;;;;;;;22.18;44.86;99218.72;4984011;28;20574;-71
2022/06/22 08:52:48;;;;;;;7.68;4.43;;;;;;;22.65;43.94;99215.44;5014002;28;20160;-71
2022/06/22 08:55:32;;;;;;;7.90;3.70;;;;;;;23.05;42.55;99214.63;5021197;28;20051;-70
2022/06/22 08:58:12;;;;;;;11.43;4.60;;;;;;;23.39;42.34;99204.66;5017395;28;20774;-72
2022/06/22 09:00:50;;;;;;;9.25;3.85;;;;;;;23.80;41.90;99202.69;5023155;28;20401;-70
2022/06/22 09:03:46;;;;;;;9.32;4.82;;;;;;;23.94;41.32;99191.16;5012663;28;20479;-71
2022/06/22 09:06:29;;;;;;;9.10;4.68;;;;;;;23.95;41.35;99189.34;5018428;28;20049;-69
2022/06/22 09:09:41;;;;;;;11.93;5.25;;;;;;;23.97;41.75;99196.22;5022941;28;20083;-69
2022/06/22 09:12:19;;;;;;;8.32;4.53;;;;;;;24.20;41.77;99196.25;5000590;28;20053;-71
2022/06/22 09:15:31;;;;;;;14.80;6.20;;;;;;;24.26;40.63;99194.69;5012210;28;20061;-70
2022/06/22 09:18:13;;;;;;;12.75;5.38;;;;;;;24.41;41.26;99197.44;5002418;28;20125;-70
2022/06/22 09:21:04;;;;;;;15.23;6.05;;;;;;;24.43;40.32;99192.72;5005190;28;20046;-70
2022/06/22 09:23:41;;;;;;;12.05;4.63;;;;;;;24.90;40.37;99186.31;4997496;28;20052;-71
2022/06/22 09:26:24;;;;;;;11.82;5.30;;;;;;;25.35;38.63;99176.47;5014353;28;20175;-71
2022/06/22 09:28:59;;;;;;;17.20;5.70;;;;;;;25.27;39.70;99173.81;5005816;28;20556;-70
2022/06/22 09:31:52;;;;;;;8.57;4.93;;;;;;;25.64;38.07;99167.47;5024711;28;20977;-71
2022/06/22 09:34:41;;;;;;;10.07;5.30;;;;;;;26.28;37.27;99165.97;5032172;28;20060;-73
2022/06/22 09:37:42;;;;;;;13.20;4.43;;;;;;;27.58;35.19;99162.84;5032365;28;20053;-70
2022/06/22 09:40:31;;;;;;;12.25;5.30;;;;;;;27.94;34.27;99161.78;5002389;28;20064;-73
2022/06/22 09:43:20;;;;;;;12.20;5.38;;;;;;;28.05;33.74;99154.94;5031548;28;20753;-71
2022/06/22 09:46:12;;;;;;;14.98;5.82;;;;;;;28.19;33.69;99155.81;5005330;28;20049;-71
2022/06/22 09:49:22;;;;;;;12.20;5.55;;;;;;;28.85;33.25;99155.91;5025837;28;20128;-72
2022/06/22 09:52:14;;;;;;;11.30;5.03;;;;;;;29.89;31.26;99153.41;4970896;28;20060;-71
2022/06/22 09:58:17;;;;;;;13.52;5.68;;;;;;;29.65;31.11;99141.34;5023026;28;20060;-70
2022/06/22 10:00:50;;;;;;;8.48;5.47;;;;;;;29.86;31.00;99137.53;5025781;28;20055;-68
2022/06/22 10:03:58;;;;;;;15.43;5.57;;;;;;;29.99;30.63;99147.50;5024131;28;20061;-71
2022/06/22 10:06:41;;;;;;;12.38;5.57;;;;;;;29.74;30.62;99151.78;5010392;28;20096;-71
2022/06/22 10:09:24;;;;;;;14.57;4.95;;;;;;;30.20;29.83;99149.88;5038644;28;20120;-72
2022/06/22 10:11:58;;;;;;;12.70;5.93;;;;;;;29.79;29.28;99156.56;5008338;28;20149;-72
2022/06/22 10:14:59;;;;;;;12.38;5.00;;;;;;;30.00;30.11;99151.88;5029270;28;20155;-72
2022/06/22 10:17:45;;;;;;;12.10;5.57;;;;;;;30.70;29.00;99157.31;5024967;28;20069;-70
2022/06/22 10:20:39;;;;;;;13.88;5.15;;;;;;;30.28;28.53;99152.38;5031001;28;20126;-71
2022/06/22 10:23:21;;;;;;;17.10;6.57;;;;;;;30.60;28.94;99149.63;4998452;28;20139;-70
2022/06/22 10:26:01;;;;;;;11.80;4.32;;;;;;;30.85;28.20;99144.22;5006842;28;20124;-70
2022/06/22 10:28:45;;;;;;;7.90;3.70;;;;;;;30.87;27.44;99144.84;5026659;28;20045;-70
2022/06/22 10:31:21;;;;;;;14.18;4.53;;;;;;;31.44;27.26;99136.53;5021253;28;20509;-70
2022/06/22 10:34:11;;;;;;;12.93;5.20;;;;;;;30.87;28.02;99144.00;5004026;28;20120;-69
2022/06/22 10:37:19;;;;;;;12.80;4.25;;;;;;;30.40;28.62;99144.34;5014697;28;20111;-71
2022/06/22 10:40:03;;;;;;;16.25;3.33;;;;;;;30.46;25.78;99151.59;4999194;28;20533;-70
2022/06/22 10:45:49;;;;;;;6.22;3.08;;;;;;;31.97;25.37;99146.81;4941631;29;20058;-70
2022/06/22 10:48:44;;;;;;;10.32;3.58;;;;;;;31.97;24.27;99148.66;4992969;28;20823;-69
2022/06/22 10:51:21;;;;;;;7.63;3.85;;;;;;;31.74;24.86;99147.47;4995879;28;20052;-71
2022/06/22 10:54:02;;;;;;;7.60;3.35;;;;;;;31.55;24.30;99148.53;4996126;28;20132;-69
2022/06/22 10:56:52;;;;;;;8.02;3.88;;;;;;;31.61;24.23;99145.75;5022893;28;20080;-70
2022/06/22 10:59:39;;;;;;;6.00;3.35;;;;;;;31.30;25.31;99145.88;5019685;28;20060;-71
2022/06/22 11:02:34;;;;;;;8.85;2.92;;;;;;;30.80;26.22;99146.75;5012537;28;20136;-71
2022/06/22 11:05:40;;;;;;;7.88;3.13;;;;;;;30.14;26.61;99137.97;4974462;28;20049;-71
2022/06/22 11:08:23;;;;;;;9.68;3.90;;;;;;;29.28;27.49;99160.06;4990473;28;20046;-70
2022/06/22 11:11:08;;;;;;;6.70;3.40;;;;;;;28.70;28.08;99155.28;5020685;28;20132;-71
2022/06/22 11:13:49;;;;;;;;;;;;;;;28.60;26.98;99141.28;5029031;28;20073;-70
2022/06/22 11:16:45;;;;;;;6.88;3.28;;;;;;;28.57;27.47;99147.97;5002608;28;19932;-72
2022/06/22 11:19:36;;;;;;;11.45;3.25;;;;;;;28.09;28.53;99152.66;5003306;28;20053;-71
2022/06/22 11:22:20;;;;;;;5.82;3.95;;;;;;;27.78;28.57;99145.84;5003569;28;20584;-71
2022/06/22 11:25:08;;;;;;;6.32;3.53;;;;;;;27.41;28.45;99145.28;5013482;28;20506;-71
2022/06/22 11:30:53;;;;;;;9.57;3.72;;;;;;;27.07;30.47;99157.72;5005230;28;20052;-70
2022/06/22 11:33:50;;;;;;;8.68;3.55;;;;;;;27.07;29.44;99154.19;5010939;28;20079;-71
2022/06/22 11:36:28;;;;;;;9.88;2.88;;;;;;;27.12;29.91;99143.59;5008325;28;20049;-70
2022/06/22 11:39:27;;;;;;;11.85;3.53;;;;;;;27.39;29.76;99152.75;5027239;28;20050;-69
2022/06/22 11:42:19;;;;;;;8.88;3.00;;;;;;;27.46;29.99;99166.34;4996916;28;20049;-70
2022/06/22 11:47:55;;;;;;;8.52;3.55;;;;;;;27.55;28.22;99155.13;5014810;28;20061;-71
2022/06/22 11:50:29;;;;;;;6.10;3.05;;;;;;;27.56;28.87;99156.78;5026901;28;20495;-71
2022/06/22 11:53:16;;;;;;;9.93;3.63;;;;;;;27.52;29.95;99155.53;5002984;28;20072;-70
2022/06/22 11:55:46;;;;;;;9.95;6.05;;;;;;;27.19;28.95;99155.34;5013021;28;20140;-70
2022/06/22 11:58:29;;;;;;;6.78;3.70;;;;;;;27.12;29.06;99151.72;5019182;28;20178;-70
2022/06/22 12:01:20;;;;;;;7.82;2.72;;;;;;;27.26;28.27;99156.22;5019897;28;20145;-70
2022/06/22 12:04:07;;;;;;;8.15;4.30;;;;;;;27.01;27.66;99146.88;5023140;28;20049;-69
2022/06/22 12:06:51;;;;;;;8.55;3.17;;;;;;;26.86;28.08;99141.56;5002618;28;20110;-70
2022/06/22 12:09:28;;;;;;;5.00;2.53;;;;;;;27.09;27.49;99146.72;5008234;28;20581;-70
2022/06/22 12:12:14;;;;;;;8.05;2.78;;;;;;;27.06;28.38;99139.84;5010923;28;20132;-70
2022/06/22 12:17:44;;;;;;;5.53;2.33;;;;;;;27.45;26.43;99143.00;5009984;28;20300;-71
2022/06/22 12:20:29;;;;;;;9.35;2.88;;;;;;;27.43;27.98;99126.97;5022127;28;20142;-72
2022/06/22 12:23:05;;;;;;;5.30;3.03;;;;;;;27.53;28.28;99116.59;5013314;28;20076;-71
2022/06/22 12:25:57;;;;;;;7.88;3.33;;;;;;;27.62;27.82;99122.69;5022897;28;20044;-70
2022/06/22 12:28:43;;;;;;;7.60;3.10;;;;;;;27.21;27.87;99112.69;5014657;28;20512;-70
2022/06/22 12:31:14;;;;;;;6.15;3.20;;;;;;;27.16;27.67;99118.66;5010880;28;20132;-71
2022/06/22 12:33:48;;;;;;;6.43;2.50;;;;;;;27.14;27.17;99112.59;5029291;28;20161;-70
2022/06/22 12:36:22;;;;;;;10.75;2.65;;;;;;;27.23;27.28;99118.75;5008285;28;20156;-70
2022/06/22 12:38:52;;;;;;;12.23;3.00;;;;;;;27.33;27.62;99110.25;5036327;28;20072;-70
2022/06/22 12:41:36;;;;;;;5.32;2.90;;;;;;;27.35;27.39;99100.06;5031269;28;20471;-72